1870 NOT_NAMED (1870101S09087)


IBTrACS version v04r00. Visit IBTrACS website for data access.
Please direct all questions to the IBTrACS Q and A forum

Storm track - Intensity - Wind Radii - Intensity Data - Source Data - All data

Summary Information

Storm ID 1870101S09087
Start Apr 11 06Z
End Apr 22 06Z
ATCF IDs
Track status Best track data.
Spur track This storm is a spur track associated with the main storm: 1870101S09087

Storm track plot

Map of storm track

Intensity plots

No Intensity information for this storm


Radial wind information

No radial wind information for this storm


Position and Intensity Table

BASIN ISO_TIME_________ NATURE LAT LON
degrees north degrees east
SI 1870-04-11 06:00:00 NR -8.50 86.70
SI 09:00:00 NR -8.58 86.54
SI 12:00:00 NR -8.67 86.38
SI 15:00:00 NR -8.75 86.22
SI 18:00:00 NR -8.84 86.05
SI 21:00:00 NR -8.93 85.87
SI 1870-04-12 00:00:00 NR -9.02 85.69
SI 03:00:00 NR -9.11 85.50
SI 06:00:00 NR -9.20 85.30
SI 09:00:00 NR -9.30 85.09
SI 12:00:00 NR -9.39 84.86
SI 15:00:00 NR -9.50 84.63
SI 18:00:00 NR -9.60 84.38
SI 21:00:00 NR -9.72 84.13
SI 1870-04-13 00:00:00 NR -9.84 83.86
SI 03:00:00 NR -9.96 83.58
SI 06:00:00 NR -10.10 83.30
SI 09:00:00 NR -10.24 83.01
SI 12:00:00 NR -10.39 82.71
SI 15:00:00 NR -10.55 82.41
SI 18:00:00 NR -10.71 82.09
SI 21:00:00 NR -10.88 81.78
SI 1870-04-14 00:00:00 NR -11.05 81.45
SI 03:00:00 NR -11.23 81.13
SI 06:00:00 NR -11.40 80.80
SI 09:00:00 NR -11.56 80.48
SI 12:00:00 NR -11.72 80.15
SI 15:00:00 NR -11.89 79.82
SI 18:00:00 NR -12.05 79.49
SI 21:00:00 NR -12.23 79.16
SI 1870-04-15 00:00:00 NR -12.41 78.84
SI 03:00:00 NR -12.60 78.52
SI 06:00:00 NR -12.80 78.20
SI 09:00:00 NR -13.02 77.86
SI 12:00:00 NR -13.24 77.53
SI 15:00:00 NR -13.48 77.20
SI 18:00:00 NR -13.72 76.88
SI 21:00:00 NR -13.97 76.58
SI 1870-04-16 00:00:00 NR -14.21 76.29
SI 03:00:00 NR -14.46 76.03
SI 06:00:00 NR -14.70 75.80
SI 09:00:00 NR -14.92 75.59
SI 12:00:00 NR -15.14 75.41
SI 15:00:00 NR -15.35 75.26
SI 18:00:00 NR -15.57 75.13
SI 21:00:00 NR -15.79 75.02
SI 1870-04-17 00:00:00 NR -16.02 74.93
SI 03:00:00 NR -16.25 74.86
SI 06:00:00 NR -16.50 74.80
SI 09:00:00 NR -16.77 74.73
SI 12:00:00 NR -17.05 74.67
SI 15:00:00 NR -17.34 74.64
SI 18:00:00 NR -17.63 74.62
SI 21:00:00 NR -17.93 74.61
SI 1870-04-18 00:00:00 NR -18.23 74.62
SI 03:00:00 NR -18.52 74.65
SI 06:00:00 NR -18.80 74.70
SI 09:00:00 NR -19.06 74.75
SI 12:00:00 NR -19.32 74.81
SI 15:00:00 NR -19.57 74.90
SI 18:00:00 NR -19.82 75.00
SI 21:00:00 NR -20.07 75.11
SI 1870-04-19 00:00:00 NR -20.31 75.23
SI 03:00:00 NR -20.56 75.36
SI 06:00:00 NR -20.80 75.50
SI 09:00:00 NR -21.02 75.59
SI 12:00:00 NR -21.23 75.69
SI 15:00:00 NR -21.44 75.79
SI 18:00:00 NR -21.67 75.92
SI 21:00:00 NR -21.91 76.08
SI 1870-04-20 00:00:00 NR -22.17 76.27
SI 03:00:00 NR -22.47 76.51
SI 06:00:00 NR -22.80 76.80
SI 09:00:00 NR -23.23 77.20
SI 12:00:00 NR -23.69 77.66
SI 15:00:00 NR -24.19 78.16
SI 18:00:00 NR -24.69 78.70
SI 21:00:00 NR -25.19 79.25
SI 1870-04-21 00:00:00 NR -25.66 79.79
SI 03:00:00 NR -26.11 80.32
SI 06:00:00 NR -26.50 80.80
SI 09:00:00 NR -26.84 81.23
SI 12:00:00 NR -27.12 81.61
SI 15:00:00 NR -27.35 81.94
SI 18:00:00 NR -27.55 82.24
SI 21:00:00 NR -27.71 82.50
SI 1870-04-22 00:00:00 NR -27.85 82.75
SI 03:00:00 NR -27.98 82.98
SI 06:00:00 NR -28.10 83.20

Source Information

Agency Information
USA
TOKYO
CMA
HKO
NEWDELHI
REUNION WMO-Best-Tracks.txt:Line=830:xxxx870123
BOM
NADI
WELLINGTON
DS824
TD9636
TD9635
NEUMANN
MLC

All available IBTrACS Data

SEASON BASIN SUBBASIN ISO_TIME_________ NATURE LAT LON WMO AGENCY DIST2LAND LANDFALL IFLAG USA SSHS REUNION LAT REUNION LON REUNION TYPE REUNION TNUM STORM SPEED STORM DIR
Year degrees north degrees east km km 1 degrees north degrees east 1 kts degrees
1870 SI MM 1870-04-11 06:00:00 NR -8.50 86.70 1551 1551 _____O________ -1 -8.50 86.70 99 9.90 4 242
1870 SI MM 09:00:00 NR -8.58 86.54 1576 1576 _____P________ -1 -8.58 86.54 99 4 242
1870 SI MM 12:00:00 NR -8.67 86.38 1591 1591 _____P________ -1 -8.67 86.38 99 4 242
1870 SI MM 15:00:00 NR -8.75 86.22 1616 1616 _____P________ -1 -8.75 86.22 99 4 243
1870 SI MM 18:00:00 NR -8.84 86.05 1635 1635 _____P________ -1 -8.84 86.05 99 4 243
1870 SI MM 21:00:00 NR -8.93 85.87 1650 1650 _____P________ -1 -8.93 85.87 99 4 243
1870 SI MM 1870-04-12 00:00:00 NR -9.02 85.69 1675 1675 _____P________ -1 -9.02 85.69 99 4 244
1870 SI MM 03:00:00 NR -9.11 85.50 1699 1699 _____P________ -1 -9.11 85.50 99 4 245
1870 SI MM 06:00:00 NR -9.20 85.30 1724 1724 _____O________ -1 -9.20 85.30 99 9.90 5 245
1870 SI MM 09:00:00 NR -9.30 85.09 1748 1748 _____P________ -1 -9.30 85.09 99 5 246
1870 SI MM 12:00:00 NR -9.39 84.86 1773 1773 _____P________ -1 -9.39 84.86 99 5 246
1870 SI MM 15:00:00 NR -9.50 84.63 1781 1778 _____P________ -1 -9.50 84.63 99 5 246
1870 SI MM 18:00:00 NR -9.60 84.38 1787 1784 _____P________ -1 -9.60 84.38 99 5 246
1870 SI MM 21:00:00 NR -9.72 84.13 1790 1790 _____P________ -1 -9.72 84.13 99 6 246
1870 SI MM 1870-04-13 00:00:00 NR -9.84 83.86 1796 1794 _____P________ -1 -9.84 83.86 99 6 245
1870 SI MM 03:00:00 NR -9.96 83.58 1812 1808 _____P________ -1 -9.96 83.58 99 6 245
1870 SI MM 06:00:00 NR -10.10 83.30 1817 1815 _____O________ -1 -10.10 83.30 99 9.90 6 244
1870 SI MM 09:00:00 NR -10.24 83.01 1823 1823 _____P________ -1 -10.24 83.01 99 6 243
1870 SI MM 12:00:00 NR -10.39 82.71 1841 1839 _____P________ -1 -10.39 82.71 99 7 243
1870 SI MM 15:00:00 NR -10.55 82.41 1848 1848 _____P________ -1 -10.55 82.41 99 7 242
1870 SI MM 18:00:00 NR -10.71 82.09 1867 1866 _____P________ -1 -10.71 82.09 99 7 242
1870 SI MM 21:00:00 NR -10.88 81.78 1887 1886 _____P________ -1 -10.88 81.78 99 7 242
1870 SI MM 1870-04-14 00:00:00 NR -11.05 81.45 1907 1906 _____P________ -1 -11.05 81.45 99 7 242
1870 SI MM 03:00:00 NR -11.23 81.13 1916 1916 _____P________ -1 -11.23 81.13 99 7 241
1870 SI MM 06:00:00 NR -11.40 80.80 1938 1938 _____O________ -1 -11.40 80.80 99 9.90 7 242
1870 SI MM 09:00:00 NR -11.56 80.48 1960 1960 _____P________ -1 -11.56 80.48 99 7 243
1870 SI MM 12:00:00 NR -11.72 80.15 1972 1972 _____P________ -1 -11.72 80.15 99 7 243
1870 SI MM 15:00:00 NR -11.89 79.82 1996 1996 _____P________ -1 -11.89 79.82 99 7 243
1870 SI MM 18:00:00 NR -12.05 79.49 2020 2020 _____P________ -1 -12.05 79.49 99 7 242
1870 SI MM 21:00:00 NR -12.23 79.16 2033 2033 _____P________ -1 -12.23 79.16 99 7 241
1870 SI MM 1870-04-15 00:00:00 NR -12.41 78.84 2060 2060 _____P________ -1 -12.41 78.84 99 7 240
1870 SI MM 03:00:00 NR -12.60 78.52 2085 2085 _____P________ -1 -12.60 78.52 99 7 238
1870 SI MM 06:00:00 NR -12.80 78.20 reunion 2111 2111 _____O________ -1 -12.80 78.20 99 9.90 8 237
1870 SI MM 09:00:00 NR -13.02 77.86 2138 2138 _____P________ -1 -13.02 77.86 99 8 236
1870 SI MM 12:00:00 NR -13.24 77.53 2167 2167 _____P________ -1 -13.24 77.53 99 8 234
1870 SI MM 15:00:00 NR -13.48 77.20 2198 2159 _____P________ -1 -13.48 77.20 99 8 233
1870 SI MM 18:00:00 NR -13.72 76.88 2159 2116 _____P________ -1 -13.72 76.88 99 8 231
1870 SI MM 21:00:00 NR -13.97 76.58 2116 2078 _____P________ -1 -13.97 76.58 99 8 229
1870 SI MM 1870-04-16 00:00:00 NR -14.21 76.29 2078 2040 _____P________ -1 -14.21 76.29 99 7 227
1870 SI MM 03:00:00 NR -14.46 76.03 2035 2007 _____P________ -1 -14.46 76.03 99 7 224
1870 SI MM 06:00:00 NR -14.70 75.80 reunion 2007 1979 _____O________ -1 -14.70 75.80 99 9.90 6 223
1870 SI MM 09:00:00 NR -14.92 75.59 1979 1951 _____P________ -1 -14.92 75.59 99 6 221
1870 SI MM 12:00:00 NR -15.14 75.41 1951 1934 _____P________ -1 -15.14 75.41 99 5 217
1870 SI MM 15:00:00 NR -15.35 75.26 1930 1903 _____P________ -1 -15.35 75.26 99 5 212
1870 SI MM 18:00:00 NR -15.57 75.13 1903 1885 _____P________ -1 -15.57 75.13 99 5 208
1870 SI MM 21:00:00 NR -15.79 75.02 1885 1868 _____P________ -1 -15.79 75.02 99 5 203
1870 SI MM 1870-04-17 00:00:00 NR -16.02 74.93 1868 1862 _____P________ -1 -16.02 74.93 99 5 198
1870 SI MM 03:00:00 NR -16.25 74.86 1858 1842 _____P________ -1 -16.25 74.86 99 5 195
1870 SI MM 06:00:00 NR -16.50 74.80 reunion 1842 1823 _____O________ -1 -16.50 74.80 99 9.90 5 193
1870 SI MM 09:00:00 NR -16.77 74.73 1823 1817 _____P________ -1 -16.77 74.73 99 6 192
1870 SI MM 12:00:00 NR -17.05 74.67 1814 1799 _____P________ -1 -17.05 74.67 99 6 189
1870 SI MM 15:00:00 NR -17.34 74.64 1799 1791 _____P________ -1 -17.34 74.64 99 6 186
1870 SI MM 18:00:00 NR -17.63 74.62 1791 1784 _____P________ -1 -17.63 74.62 99 6 181
1870 SI MM 21:00:00 NR -17.93 74.61 1784 1778 _____P________ -1 -17.93 74.61 99 6 0
1870 SI MM 1870-04-18 00:00:00 NR -18.23 74.62 1778 1772 _____P________ -1 -18.23 74.62 99 6 177
1870 SI MM 03:00:00 NR -18.52 74.65 1783 1777 _____P________ -1 -18.52 74.65 99 6 174
1870 SI MM 06:00:00 NR -18.80 74.70 reunion 1777 1774 _____O________ -1 -18.80 74.70 99 9.90 6 171
1870 SI MM 09:00:00 NR -19.06 74.75 1773 1773 _____P________ -1 -19.06 74.75 99 5 168
1870 SI MM 12:00:00 NR -19.32 74.81 1781 1779 _____P________ -1 -19.32 74.81 99 5 164
1870 SI MM 15:00:00 NR -19.57 74.90 1788 1787 _____P________ -1 -19.57 74.90 99 5 162
1870 SI MM 18:00:00 NR -19.82 75.00 1796 1795 _____P________ -1 -19.82 75.00 99 5 159
1870 SI MM 21:00:00 NR -20.07 75.11 1804 1804 _____P________ -1 -20.07 75.11 99 5 156
1870 SI MM 1870-04-19 00:00:00 NR -20.31 75.23 1813 1813 _____P________ -1 -20.31 75.23 99 5 154
1870 SI MM 03:00:00 NR -20.56 75.36 1832 1832 _____P________ -1 -20.56 75.36 99 6 152
1870 SI MM 06:00:00 NR -20.80 75.50 reunion 1842 1842 _____O________ -1 -20.80 75.50 99 9.90 5 155
1870 SI MM 09:00:00 NR -21.02 75.59 1852 1852 _____P________ -1 -21.02 75.59 99 5 158
1870 SI MM 12:00:00 NR -21.23 75.69 1862 1862 _____P________ -1 -21.23 75.69 99 5 156
1870 SI MM 15:00:00 NR -21.44 75.79 1873 1873 _____P________ -1 -21.44 75.79 99 5 153
1870 SI MM 18:00:00 NR -21.67 75.92 1884 1884 _____P________ -1 -21.67 75.92 99 5 151
1870 SI MM 21:00:00 NR -21.91 76.08 1905 1905 _____P________ -1 -21.91 76.08 99 6 147
1870 SI MM 1870-04-20 00:00:00 NR -22.17 76.27 1927 1927 _____P________ -1 -22.17 76.27 99 7 144
1870 SI MM 03:00:00 NR -22.47 76.51 1949 1949 _____P________ -1 -22.47 76.51 99 8 142
1870 SI MM 06:00:00 NR -22.80 76.80 reunion 1982 1982 _____O________ -1 -22.80 76.80 99 9.90 10 140
1870 SI MM 09:00:00 NR -23.23 77.20 2027 2027 _____P________ -1 -23.23 77.20 99 12 139
1870 SI MM 12:00:00 NR -23.69 77.66 2084 2084 _____P________ -1 -23.69 77.66 99 13 137
1870 SI MM 15:00:00 NR -24.19 78.16 2141 2141 _____P________ -1 -24.19 78.16 99 14 136
1870 SI MM 18:00:00 NR -24.69 78.70 2199 2199 _____P________ -1 -24.69 78.70 99 14 135
1870 SI MM 21:00:00 NR -25.19 79.25 2258 2258 _____P________ -1 -25.19 79.25 99 14 135
1870 SI MM 1870-04-21 00:00:00 NR -25.66 79.79 2327 2327 _____P________ -1 -25.66 79.79 99 13 134
1870 SI MM 03:00:00 NR -26.11 80.32 2384 2384 _____P________ -1 -26.11 80.32 99 12 133
1870 SI MM 06:00:00 NR -26.50 80.80 2442 2442 _____O________ -1 -26.50 80.80 99 9.90 11 132
1870 SI MM 09:00:00 NR -26.84 81.23 2487 2487 _____P________ -1 -26.84 81.23 99 10 131
1870 SI MM 12:00:00 NR -27.12 81.61 2533 2533 _____P________ -1 -27.12 81.61 99 8 129
1870 SI MM 15:00:00 NR -27.35 81.94 2569 2569 _____P________ -1 -27.35 81.94 99 7 128
1870 SI MM 18:00:00 NR -27.55 82.24 2600 2590 _____P________ -1 -27.55 82.24 99 6 126
1870 SI MM 21:00:00 NR -27.71 82.50 2593 2586 _____P________ -1 -27.71 82.50 99 5 124
1870 SI MM 1870-04-22 00:00:00 NR -27.85 82.75 2579 2575 _____P________ -1 -27.85 82.75 99 5 123
1870 SI MM 03:00:00 NR -27.98 82.98 2579 2572 _____P________ -1 -27.98 82.98 99 5 122
1870 SI MM 06:00:00 NR -28.10 83.20 2575 _____O________ -1 -28.10 83.20 99 9.90 5 122